Beverly, MA

5:59 PM EST on December 25, 2014 (GMT -0500)
Experimental Beverly WX | Change Station
CLOSE
Current Station
Personal Weather Station
Location: Beverly, MA
Elevation: 72 ft
Nearby Weather Stations

Elev 72 ft 42.56 °N, 70.85 °W | Updated 3 seconds ago

Partly Cloudy
Partly Cloudy
47.7 °F
Feels Like 48 °F
N
2.0
Wind Variable Wind from NE
Gusts 11.0 mph

Today
High -- | Low -- °F
--% Chance of Precip.
Yesterday
High -- | Low -- °F
Precip. -- in
7:11 AM 4:15 PM
Waxing Crescent, 20% visible
Pressure 29.75 in
Visibility 10.0 miles
Clouds Clear
Windchill 48 °F
Dew Point 33 °F
Humidity 57%
Rainfall 0.15 in
Snow Depth Not available.
UV 0 out of 12
Pollen .10 out of 12
Air Quality Not available.
Flu Activity Not available.
METAR KBVY 252253Z 27012G18KT 10SM CLR 08/M02 A2976 RMK AO2 SLP074 T00831022

More Conditions Fewer Conditions

Pressure 29.75 in
Visibility 10.0 miles
Clouds Clear
Windchill 48 °F
Dew Point 33 °F
Humidity 57%
Rainfall 0.15 in
Snow Depth Not available.
UV 0 out of 12
Pollen .10 out of 12
Air Quality Not available.
Flu Activity Not available.
METAR KBVY 252253Z 27012G18KT 10SM CLR 08/M02 A2976 RMK AO2 SLP074 T00831022

More Conditions Fewer Conditions

10-Day Weather Forecast

Almanac

Astronomy

Dec. 25, 2014 Rise Set
Actual Time
Civil Twilight
Nautical Twilight
Astronomical Twilight
Moon
Length of Visible Light
Length of Day
Tomorrow will be .
, % of the Moon is Illuminated

Today's Extremes

State Highs State Lows

Community

WunderPhotos

Upload Photos

1,780,431 photos uploaded!

WunderBlogs® & News

Nearby

Air Quality

  Air Quality AQ Index Pollutant
Not available.

Snow Depth

Station Depth Elevation

Earthquake Activity

City Distance Mag. Time & Date
Minimum magnitude displayed is 2.5.

Coastal Water Temperatures

Place Temperature

Nearby Weather Stations